createdAt,value
2024-04-21T07:07:26.296Z,2.72
2024-04-21T07:29:53.919Z,2.33
2024-04-21T07:30:55.433Z,2.41
2024-04-21T07:31:57.249Z,2.76
2024-04-21T07:32:58.870Z,3.14
2024-04-21T07:34:00.505Z,3.51
2024-04-21T07:35:02.094Z,3.79
2024-04-21T07:36:04.362Z,4.21
2024-04-21T07:37:05.928Z,4.17
2024-04-21T07:38:07.462Z,4.13
2024-04-21T07:39:09.306Z,4.13
2024-04-21T07:40:11.269Z,4.10
2024-04-21T07:42:05.752Z,3.87
2024-04-21T07:43:07.444Z,4.01
2024-04-21T07:44:08.968Z,4.18
2024-04-21T07:53:38.469Z,3.60
2024-04-21T07:55:38.683Z,3.44
2024-04-21T07:57:38.339Z,3.49
2024-04-21T07:59:36.552Z,3.72
2024-04-21T08:00:41.002Z,3.68
2024-04-21T08:01:42.757Z,3.76
2024-04-21T08:02:44.449Z,4.11
2024-04-21T08:03:46.080Z,4.08
2024-04-21T08:04:47.624Z,3.94
2024-04-21T08:05:49.527Z,4.31
2024-04-21T08:06:51.101Z,4.81
2024-04-21T08:07:52.754Z,4.87
2024-04-21T08:09:00.932Z,4.65
2024-04-21T08:10:09.154Z,4.82
2024-04-21T08:11:10.985Z,5.39
2024-04-21T08:12:12.575Z,5.71
2024-04-21T08:13:14.107Z,5.77
2024-04-21T08:14:15.632Z,5.68
2024-04-21T08:15:17.289Z,5.66
2024-04-21T08:16:18.819Z,5.46
2024-04-21T08:17:20.406Z,5.36
2024-04-21T08:18:22.051Z,5.52
2024-04-21T08:19:23.738Z,5.16
2024-04-21T08:20:25.254Z,5.32
2024-04-21T08:21:26.735Z,5.34
2024-04-21T08:22:28.365Z,5.10
2024-04-21T08:23:31.499Z,5.12
2024-04-21T08:24:33.206Z,4.82
2024-04-21T08:25:35.103Z,4.76
2024-04-21T08:28:11.080Z,4.58
2024-04-21T08:30:37.950Z,4.10
2024-04-21T08:31:39.565Z,4.49
2024-04-21T08:32:41.220Z,4.50
2024-04-21T08:33:43.776Z,4.50
2024-04-21T08:34:45.309Z,4.71
2024-04-21T08:35:57.724Z,4.86
2024-04-21T08:36:59.359Z,4.43
2024-04-21T08:38:01.089Z,4.30
2024-04-21T08:39:02.671Z,4.31
2024-04-21T08:40:05.949Z,4.41
2024-04-21T09:09:37.977Z,3.48
2024-04-21T09:10:39.477Z,4.01
2024-04-21T09:11:41.020Z,4.80
2024-04-21T09:12:43.839Z,5.81
2024-04-21T09:13:45.415Z,5.83
2024-04-21T09:14:46.901Z,5.78
2024-04-21T09:15:48.398Z,6.12
2024-04-21T09:16:50.648Z,7.06
2024-04-21T09:17:52.475Z,7.40
2024-04-21T09:18:54.442Z,7.26
2024-04-21T09:19:56.115Z,7.30
2024-04-21T09:20:58.008Z,7.56
2024-04-21T09:21:59.567Z,6.91
2024-04-21T09:23:01.321Z,5.96
2024-04-21T09:24:03.024Z,6.46
2024-04-21T09:25:08.252Z,6.30
2024-04-21T09:43:48.349Z,4.36
2024-04-21T09:45:54.938Z,4.32
2024-04-21T10:00:10.037Z,3.97
2024-04-21T10:02:23.518Z,4.16
2024-04-21T10:04:23.089Z,4.39
2024-04-21T10:05:28.416Z,4.43
2024-04-21T10:06:32.129Z,4.66
2024-04-21T10:07:39.625Z,4.84
2024-04-21T10:08:41.568Z,5.49
2024-04-21T10:09:43.486Z,6.00
2024-04-21T10:10:50.703Z,6.37
2024-04-21T10:11:52.297Z,7.10
2024-04-21T10:12:56.663Z,7.13
2024-04-21T10:14:00.693Z,7.33
2024-04-21T10:15:03.777Z,7.14
2024-04-21T10:16:06.345Z,7.23
2024-04-21T10:17:07.978Z,7.63
2024-04-21T10:18:09.975Z,7.37
2024-04-21T10:19:11.879Z,7.38
2024-04-21T10:20:13.397Z,7.67
2024-04-21T10:21:15.806Z,7.45
2024-04-21T10:22:18.342Z,7.72
2024-04-21T10:23:20.292Z,7.09
2024-04-21T10:24:21.841Z,7.04
2024-04-21T10:25:23.745Z,7.87
2024-04-21T10:26:25.382Z,8.27
2024-04-21T10:27:26.917Z,8.88
2024-04-21T10:28:30.496Z,9.09
2024-04-21T10:29:32.503Z,9.41
2024-04-21T10:30:35.049Z,8.73
2024-04-21T10:31:36.954Z,8.70
2024-04-21T10:32:38.623Z,8.99
2024-04-21T10:33:41.981Z,9.34
2024-04-21T10:34:48.034Z,8.72
2024-04-21T10:35:52.577Z,8.14
2024-04-21T10:36:54.162Z,8.03
2024-04-21T10:37:58.637Z,7.94
2024-04-21T10:39:00.440Z,7.58
2024-04-21T10:40:06.970Z,7.47
2024-04-21T10:41:09.175Z,7.38
2024-04-21T10:42:12.233Z,7.30
2024-04-21T10:43:15.428Z,7.35
2024-04-21T10:44:17.119Z,7.32
2024-04-21T10:45:18.850Z,7.27
2024-04-21T10:46:20.510Z,7.45
2024-04-21T10:47:22.029Z,7.92
2024-04-21T10:48:24.367Z,8.39
2024-04-21T10:49:26.114Z,8.44
2024-04-21T10:50:27.727Z,8.54
2024-04-21T10:51:30.418Z,8.21
2024-04-21T10:52:32.116Z,7.66
2024-04-21T10:53:33.770Z,7.60
2024-04-21T10:54:36.589Z,7.48
2024-04-21T10:55:38.207Z,7.18
2024-04-21T10:56:39.896Z,6.75
2024-04-21T10:57:42.966Z,6.99
2024-04-21T10:58:49.295Z,6.46
2024-04-21T10:59:50.789Z,6.28
2024-04-21T11:00:52.417Z,6.00
2024-04-21T11:01:55.742Z,7.24
2024-04-21T11:02:57.752Z,7.44
2024-04-21T11:04:02.203Z,7.63
2024-04-21T11:05:05.472Z,7.71
2024-04-21T11:06:09.399Z,7.32
2024-04-21T11:07:11.871Z,7.44
2024-04-21T11:08:13.912Z,7.38
2024-04-21T11:09:15.409Z,7.25
2024-04-21T11:10:17.033Z,7.13
2024-04-21T11:11:18.845Z,7.15
2024-04-21T11:12:21.215Z,6.74
2024-04-21T11:13:22.839Z,7.43
2024-04-21T11:14:26.549Z,8.41
2024-04-21T11:15:28.554Z,9.35
2024-04-21T11:16:31.958Z,8.81
2024-04-21T11:17:34.180Z,9.54
2024-04-21T11:18:35.767Z,9.30
2024-04-21T11:19:37.437Z,8.51
2024-04-21T11:20:39.109Z,8.24
2024-04-21T11:21:40.808Z,7.73
2024-04-21T11:22:43.225Z,7.78
2024-04-21T11:23:45.384Z,7.45
2024-04-21T11:24:47.548Z,7.32
2024-04-21T11:25:53.839Z,7.58
2024-04-21T11:26:59.778Z,7.64
2024-04-21T11:28:09.586Z,7.62
2024-04-21T11:29:11.549Z,7.48
2024-04-21T11:30:13.189Z,7.54
2024-04-21T11:31:14.820Z,7.64
2024-04-21T11:32:16.406Z,7.67
2024-04-21T11:33:17.937Z,7.76
2024-04-21T11:34:19.568Z,7.41
2024-04-21T11:35:21.416Z,7.05
2024-04-21T11:36:24.033Z,7.47
2024-04-21T11:37:25.806Z,7.30
2024-04-21T11:38:27.487Z,7.08
2024-04-21T11:39:29.106Z,7.07
2024-04-21T11:40:30.850Z,7.16
2024-04-21T11:41:32.475Z,7.34
2024-04-21T11:42:33.979Z,7.38
2024-04-21T11:43:38.756Z,7.18
2024-04-21T11:44:42.581Z,6.95
2024-04-21T11:45:44.565Z,7.35
2024-04-21T11:46:46.184Z,8.65
2024-04-21T11:47:55.095Z,9.78
2024-04-21T11:48:56.776Z,10.62
2024-04-21T11:49:58.316Z,11.11
2024-04-21T11:51:00.970Z,11.57
2024-04-21T11:52:02.542Z,11.75
2024-04-21T11:53:05.547Z,11.47
2024-04-21T11:54:08.292Z,11.48
2024-04-21T11:55:09.818Z,10.64
2024-04-21T11:56:11.351Z,11.73
2024-04-21T11:57:12.860Z,12.06
2024-04-21T11:58:14.420Z,12.44
2024-04-21T11:59:16.037Z,11.90
2024-04-21T12:00:17.610Z,11.37
2024-04-21T12:01:22.300Z,10.71
2024-04-21T12:02:27.955Z,10.71
2024-04-21T12:03:29.551Z,9.52
2024-04-21T12:04:31.127Z,9.56
2024-04-21T12:05:32.709Z,8.33
2024-04-21T12:06:34.184Z,8.52
2024-04-21T12:07:35.645Z,8.12
2024-04-21T12:08:37.129Z,7.84
2024-04-21T12:09:38.647Z,7.49
2024-04-21T12:10:40.321Z,7.31
2024-04-21T12:11:42.652Z,7.24
2024-04-21T12:12:44.258Z,7.21
2024-04-21T12:13:45.755Z,6.98
2024-04-21T12:14:47.239Z,6.99
2024-04-21T12:15:49.028Z,7.25
2024-04-21T12:19:02.144Z,7.35
2024-04-21T12:20:03.840Z,7.14
2024-04-21T12:21:05.434Z,6.77
2024-04-21T12:22:07.023Z,6.49
2024-04-21T12:24:50.815Z,6.25
2024-04-21T12:25:52.328Z,6.42
2024-04-21T12:26:54.210Z,5.89
2024-04-21T12:29:12.306Z,6.27
2024-04-21T12:30:13.969Z,6.60
2024-04-21T12:31:15.818Z,6.60
2024-04-21T12:32:17.514Z,6.99
2024-04-21T12:33:19.063Z,7.10
2024-04-21T12:34:20.621Z,6.68
2024-04-21T12:36:25.705Z,6.78
2024-04-21T12:37:27.246Z,6.70
2024-04-21T12:38:28.747Z,6.82
2024-04-21T12:39:30.247Z,6.68
2024-04-21T12:40:31.900Z,7.13
2024-04-21T12:41:34.592Z,7.12
2024-04-21T12:42:36.319Z,7.18
2024-04-21T12:43:37.861Z,7.15
2024-04-21T12:44:39.354Z,7.31
2024-04-21T12:45:40.844Z,7.13
2024-04-21T12:46:42.599Z,6.41
2024-04-21T12:47:44.137Z,6.50
2024-04-21T12:48:45.680Z,6.51
2024-04-21T12:49:47.150Z,6.95
2024-04-21T13:00:30.272Z,6.83
2024-04-21T13:02:36.298Z,6.52
2024-04-21T13:11:28.160Z,6.73
2024-04-21T13:13:39.312Z,6.67
2024-04-21T13:15:49.716Z,6.79
2024-04-21T13:17:56.915Z,6.83
2024-04-21T13:18:59.241Z,7.00
2024-04-21T13:20:00.717Z,7.42
2024-04-21T13:21:02.258Z,7.88
2024-04-21T13:22:04.167Z,7.85
2024-04-21T13:23:05.666Z,8.35
2024-04-21T13:24:07.538Z,8.38
2024-04-21T13:25:09.310Z,8.13
2024-04-21T13:26:11.625Z,7.97
2024-04-21T13:27:14.480Z,7.65
2024-04-21T13:29:41.101Z,7.46
2024-04-21T13:32:03.967Z,7.15
2024-04-21T13:33:05.938Z,7.26
2024-04-21T13:34:07.481Z,7.24
2024-04-21T13:35:09.019Z,6.85
2024-04-21T13:36:14.934Z,7.03
2024-04-21T13:37:21.802Z,6.53
2024-04-21T13:38:23.375Z,6.76
2024-04-21T13:39:24.943Z,6.81
2024-04-21T13:40:26.531Z,6.40
2024-04-21T13:41:31.243Z,6.54
2024-04-21T13:42:34.672Z,6.48
2024-04-21T13:43:36.263Z,6.73
2024-04-21T13:44:37.789Z,6.72
2024-04-21T13:45:39.350Z,6.60
2024-04-21T13:46:41.010Z,6.69
2024-04-21T13:47:42.678Z,6.67
2024-04-21T13:48:44.210Z,6.83
2024-04-21T13:49:45.838Z,6.75
2024-04-21T13:50:47.492Z,6.83
2024-04-21T13:51:49.089Z,6.60
2024-04-21T13:52:51.005Z,6.73
2024-04-21T13:53:52.668Z,6.74
2024-04-21T13:54:54.164Z,6.85
2024-04-21T13:55:55.680Z,7.01
2024-04-21T13:56:57.746Z,7.11
2024-04-21T13:57:59.297Z,7.76
2024-04-21T13:59:00.841Z,8.48
2024-04-21T14:00:02.876Z,8.94
2024-04-21T14:01:04.586Z,9.37
2024-04-21T14:02:08.179Z,9.89
2024-04-21T14:03:09.699Z,10.16
2024-04-21T14:04:12.012Z,9.92
2024-04-21T14:05:13.624Z,9.03
2024-04-21T14:06:18.863Z,8.44
2024-04-21T14:07:29.638Z,7.93
2024-04-21T14:08:31.144Z,7.92
2024-04-21T14:09:32.640Z,7.97
2024-04-21T14:10:34.861Z,7.81
2024-04-21T14:11:36.516Z,7.50
2024-04-21T14:12:38.099Z,7.76
2024-04-21T14:13:39.609Z,7.90
2024-04-21T14:14:41.165Z,8.23
2024-04-21T14:15:42.650Z,9.23
2024-04-21T14:16:44.233Z,9.70
2024-04-21T14:17:45.913Z,9.82
2024-04-21T14:18:50.733Z,9.60
2024-04-21T14:19:53.180Z,9.20
2024-04-21T14:20:56.227Z,9.34
2024-04-21T14:21:57.998Z,8.75
2024-04-21T14:22:59.532Z,8.52
2024-04-21T14:24:02.508Z,7.83
2024-04-21T14:25:05.009Z,8.13
2024-04-21T14:26:06.549Z,7.81
2024-04-21T14:27:08.066Z,7.91
2024-04-21T14:28:09.602Z,7.22
2024-04-21T14:29:11.201Z,7.31
2024-04-21T14:30:12.911Z,7.61
2024-04-21T14:31:14.547Z,8.22
2024-04-21T14:32:18.194Z,8.35
2024-04-21T14:33:22.255Z,7.72
2024-04-21T14:34:23.939Z,7.73
2024-04-21T14:35:25.545Z,7.78
2024-04-21T14:36:28.513Z,7.52
2024-04-21T14:37:30.599Z,7.97
2024-04-21T14:38:32.156Z,8.09
2024-04-21T14:39:33.734Z,8.00
2024-04-21T14:40:35.321Z,8.33
2024-04-21T14:41:37.839Z,8.03
2024-04-21T14:42:40.950Z,7.86
2024-04-21T14:43:42.529Z,7.58
2024-04-21T14:44:50.497Z,7.57
2024-04-21T14:45:56.412Z,7.36
2024-04-21T14:46:58.005Z,8.21
2024-04-21T14:48:00.215Z,8.83
2024-04-21T14:49:05.918Z,8.76
2024-04-21T14:50:07.572Z,8.53
2024-04-21T14:51:09.137Z,9.02
2024-04-21T14:52:10.851Z,9.72
2024-04-21T14:53:14.242Z,10.17
2024-04-21T14:54:15.793Z,10.02
2024-04-21T14:55:17.482Z,9.80
2024-04-21T14:56:21.914Z,10.47
2024-04-21T14:57:23.402Z,10.74
2024-04-21T14:58:25.603Z,10.89
2024-04-21T14:59:27.148Z,11.21
2024-04-21T15:00:28.914Z,11.33
2024-04-21T15:01:30.488Z,11.84
2024-04-21T15:02:32.073Z,12.77
2024-04-21T15:03:33.660Z,11.91
2024-04-21T15:04:37.654Z,12.34
2024-04-21T15:05:40.595Z,12.61
2024-04-21T15:06:43.493Z,11.88
2024-04-21T15:07:45.110Z,11.26
2024-04-21T15:08:47.896Z,10.31
2024-04-21T15:09:49.418Z,9.62
2024-04-21T15:10:51.557Z,8.90
2024-04-21T15:11:53.173Z,8.27
2024-04-21T15:12:57.426Z,8.85
2024-04-21T15:13:59.102Z,9.47
2024-04-21T15:15:00.714Z,10.50
2024-04-21T15:16:02.350Z,10.65
2024-04-21T15:17:03.955Z,11.12
2024-04-21T15:18:06.401Z,11.20
2024-04-21T15:19:08.098Z,11.68
2024-04-21T15:20:09.996Z,10.89
2024-04-21T15:21:12.104Z,10.62
2024-04-21T15:22:13.606Z,9.94
2024-04-21T15:23:15.165Z,10.15
2024-04-21T15:24:16.662Z,9.77
2024-04-21T15:25:18.266Z,9.25
2024-04-21T15:26:19.795Z,9.17
2024-04-21T15:27:21.363Z,8.65
2024-04-21T15:28:22.926Z,9.92
2024-04-21T15:29:24.551Z,10.57
2024-04-21T15:30:26.085Z,9.97
2024-04-21T15:31:27.742Z,9.84
2024-04-21T15:32:29.425Z,10.16
2024-04-21T15:33:31.082Z,10.01
2024-04-21T15:34:32.829Z,9.22
2024-04-21T15:35:34.438Z,9.52
2024-04-21T15:36:35.937Z,9.12
2024-04-21T15:37:39.683Z,8.49
2024-04-21T15:38:41.288Z,7.99
2024-04-21T15:39:42.806Z,8.41
2024-04-21T15:40:44.378Z,8.78
2024-04-21T15:41:45.882Z,8.69
2024-04-21T15:42:47.501Z,8.51
2024-04-21T15:43:49.029Z,8.53
2024-04-21T15:44:50.612Z,8.90
2024-04-21T15:45:52.149Z,9.18
2024-04-21T15:46:53.711Z,9.19
2024-04-21T15:47:55.394Z,8.95
2024-04-21T15:48:57.120Z,9.18
2024-04-21T15:50:01.232Z,8.73
2024-04-21T15:51:08.544Z,8.10
2024-04-21T15:52:10.104Z,7.70
2024-04-21T15:53:13.293Z,7.81
2024-04-21T15:54:14.789Z,7.78
2024-04-21T15:55:16.837Z,7.94
2024-04-21T15:56:18.568Z,7.16
2024-04-21T15:57:21.027Z,7.16
2024-04-21T15:58:22.659Z,6.94
2024-04-21T15:59:24.186Z,7.17
2024-04-21T16:00:25.725Z,7.35
2024-04-21T16:01:27.265Z,7.00
2024-04-21T16:02:28.849Z,7.09
2024-04-21T16:03:30.600Z,7.25
2024-04-21T16:04:32.151Z,7.22
2024-04-21T16:05:33.648Z,7.12
2024-04-21T16:06:35.158Z,6.45
2024-04-21T16:07:37.316Z,6.72
2024-04-21T16:08:38.910Z,6.63
2024-04-21T16:09:40.467Z,6.73
2024-04-21T16:10:42.730Z,6.58
2024-04-21T16:11:44.276Z,6.18
2024-04-21T16:12:45.835Z,6.13
2024-04-21T16:13:49.538Z,5.84
2024-04-21T16:14:51.512Z,5.88
2024-04-21T16:15:52.992Z,5.87
2024-04-21T16:16:56.519Z,5.89
2024-04-21T16:17:58.133Z,5.80
2024-04-21T16:18:59.796Z,6.07
2024-04-21T16:20:01.465Z,5.75
2024-04-21T16:21:03.116Z,5.74
2024-04-21T16:22:04.748Z,5.39
2024-04-21T16:23:06.269Z,5.64
2024-04-21T16:24:07.900Z,5.33
2024-04-21T16:25:09.802Z,5.00
2024-04-21T16:26:11.423Z,5.43
2024-04-21T16:27:13.045Z,5.35
